createdAt,value
2022-09-03T00:01:20.511Z,12.84
2022-09-03T00:03:56.936Z,12.79
2022-09-03T00:06:34.255Z,12.74
2022-09-03T00:09:13.227Z,12.69
2022-09-03T00:11:52.069Z,12.65
2022-09-03T00:14:28.127Z,12.60
2022-09-03T00:17:04.499Z,12.54
2022-09-03T00:19:42.086Z,12.50
2022-09-03T00:22:19.010Z,12.47
2022-09-03T00:24:51.566Z,12.42
2022-09-03T00:27:28.278Z,12.39
2022-09-03T00:30:04.540Z,12.37
2022-09-03T00:32:47.280Z,12.34
2022-09-03T00:35:24.904Z,12.32
2022-09-03T00:37:57.259Z,12.30
2022-09-03T00:40:50.735Z,12.27
2022-09-03T00:43:32.771Z,12.24
2022-09-03T00:46:18.743Z,12.21
2022-09-03T00:49:09.523Z,12.16
2022-09-03T00:51:51.962Z,12.13
2022-09-03T00:54:35.186Z,12.10
2022-09-03T00:57:25.963Z,12.07
2022-09-03T01:00:05.036Z,12.04
2022-09-03T01:02:49.366Z,11.99
2022-09-03T01:05:35.879Z,11.96
2022-09-03T01:08:22.418Z,11.92
2022-09-03T01:10:59.062Z,11.88
2022-09-03T01:13:35.107Z,11.86
2022-09-03T01:16:17.398Z,11.83
2022-09-03T01:18:56.666Z,11.79
2022-09-03T01:21:46.861Z,11.78
2022-09-03T01:24:43.693Z,11.77
2022-09-03T01:27:31.608Z,11.74
2022-09-03T01:30:07.121Z,11.73
2022-09-03T01:32:47.081Z,11.72
2022-09-03T01:35:28.202Z,11.70
2022-09-03T01:38:12.116Z,11.68
2022-09-03T01:40:50.257Z,11.66
2022-09-03T01:43:43.308Z,11.64
2022-09-03T01:46:24.960Z,11.61
2022-09-03T01:49:06.844Z,11.58
2022-09-03T01:51:37.715Z,11.55
2022-09-03T01:54:35.562Z,11.51
2022-09-03T01:57:35.808Z,11.47
2022-09-03T02:00:13.631Z,11.42
2022-09-03T02:02:48.208Z,11.38
2022-09-03T02:05:23.028Z,11.36
2022-09-03T02:08:00.588Z,11.33
2022-09-03T02:10:39.600Z,11.31
2022-09-03T02:13:15.018Z,11.29
2022-09-03T02:15:49.688Z,11.28
2022-09-03T02:18:25.741Z,11.25
2022-09-03T02:20:57.444Z,11.21
2022-09-03T02:23:29.904Z,11.20
2022-09-03T02:26:03.184Z,11.18
2022-09-03T02:28:35.334Z,11.17
2022-09-03T02:31:06.782Z,11.15
2022-09-03T02:33:40.575Z,11.13
2022-09-03T02:36:14.752Z,11.11
2022-09-03T02:38:46.576Z,11.08
2022-09-03T02:41:17.989Z,11.06
2022-09-03T02:43:56.080Z,11.03
2022-09-03T02:46:31.238Z,11.02
2022-09-03T02:49:00.594Z,10.98
2022-09-03T02:51:36.740Z,10.96
2022-09-03T02:54:09.498Z,10.96
2022-09-03T02:56:40.463Z,10.97
2022-09-03T02:59:12.121Z,10.98
2022-09-03T03:01:43.073Z,10.98
2022-09-03T03:04:17.702Z,10.99
2022-09-03T03:06:50.816Z,11.00
2022-09-03T03:09:21.815Z,11.00
2022-09-03T03:11:55.513Z,10.99
2022-09-03T03:14:26.548Z,10.98
2022-09-03T03:16:57.577Z,10.98
2022-09-03T03:19:28.588Z,10.96
2022-09-03T03:22:00.894Z,10.94
2022-09-03T03:24:32.351Z,10.93
2022-09-03T03:27:05.995Z,10.91
2022-09-03T03:29:36.924Z,10.87
2022-09-03T03:32:08.084Z,10.85
2022-09-03T03:34:40.053Z,10.83
2022-09-03T03:37:11.024Z,10.80
2022-09-03T03:39:42.022Z,10.78
2022-09-03T03:42:14.352Z,10.76
2022-09-03T03:44:45.395Z,10.75
2022-09-03T03:47:17.191Z,10.73
2022-09-03T03:49:48.379Z,10.71
2022-09-03T03:52:19.397Z,10.70
2022-09-03T03:54:50.583Z,10.69
2022-09-03T03:57:23.207Z,10.70
2022-09-03T03:59:54.078Z,10.72
2022-09-03T04:02:25.108Z,10.73
2022-09-03T04:04:55.996Z,10.74
2022-09-03T04:07:27.166Z,10.75
2022-09-03T04:09:58.106Z,10.76
2022-09-03T04:12:29.582Z,10.77
2022-09-03T04:15:00.523Z,10.78
2022-09-03T04:17:31.989Z,10.79
2022-09-03T04:20:03.057Z,10.80
2022-09-03T04:22:34.158Z,10.82
2022-09-03T04:25:05.549Z,10.84
2022-09-03T04:27:36.464Z,10.92
2022-09-03T04:30:09.262Z,11.24
2022-09-03T04:32:56.248Z,11.85
2022-09-03T04:35:31.809Z,12.65
2022-09-03T04:38:04.378Z,13.42
2022-09-03T04:40:35.399Z,14.13
2022-09-03T04:43:06.732Z,14.84
2022-09-03T04:45:37.792Z,15.53
2022-09-03T04:48:11.933Z,16.12
2022-09-03T04:50:42.828Z,16.63
2022-09-03T04:53:13.832Z,17.00
2022-09-03T04:55:44.741Z,17.31
2022-09-03T04:58:16.201Z,17.60
2022-09-03T05:00:47.278Z,17.81
2022-09-03T05:03:18.272Z,17.98
2022-09-03T05:05:56.851Z,18.15
2022-09-03T05:08:28.466Z,18.35
2022-09-03T05:11:02.663Z,18.59
2022-09-03T05:13:34.047Z,18.89
2022-09-03T05:16:07.540Z,19.16
2022-09-03T05:18:38.748Z,19.35
2022-09-03T05:21:11.519Z,19.51
2022-09-03T05:23:43.947Z,19.68
2022-09-03T05:26:16.495Z,19.95
2022-09-03T05:28:48.470Z,20.29
2022-09-03T05:31:21.320Z,20.68
2022-09-03T05:33:54.554Z,21.20
2022-09-03T05:36:27.191Z,21.87
2022-09-03T05:38:59.113Z,22.65
2022-09-03T05:41:33.630Z,23.46
2022-09-03T05:44:06.214Z,24.33
2022-09-03T05:46:38.080Z,25.15
2022-09-03T05:49:11.727Z,25.91
2022-09-03T05:51:42.677Z,26.46
2022-09-03T05:54:13.705Z,27.03
2022-09-03T05:56:44.642Z,27.58
2022-09-03T05:59:15.573Z,28.08
2022-09-03T06:01:50.925Z,28.55
2022-09-03T06:04:23.929Z,28.97
2022-09-03T06:06:54.950Z,29.32
2022-09-03T06:09:25.849Z,29.67
2022-09-03T06:11:57.173Z,29.99
2022-09-03T06:14:28.476Z,30.25
2022-09-03T06:16:59.500Z,30.46
2022-09-03T06:19:30.480Z,30.76
2022-09-03T06:22:01.404Z,31.07
2022-09-03T06:24:32.387Z,31.31
2022-09-03T06:27:04.012Z,31.65
2022-09-03T06:29:35.744Z,31.98
2022-09-03T06:32:07.145Z,32.33
2022-09-03T06:34:38.191Z,32.66
2022-09-03T06:37:09.171Z,32.94
2022-09-03T06:39:40.269Z,33.22
2022-09-03T06:42:11.668Z,33.45
2022-09-03T06:44:46.437Z,33.62
2022-09-03T06:47:17.715Z,33.77
2022-09-03T06:49:48.719Z,33.93
2022-09-03T06:52:19.649Z,34.10
2022-09-03T06:54:50.705Z,34.26
2022-09-03T06:57:23.764Z,34.35
2022-09-03T06:59:54.794Z,34.45
2022-09-03T07:02:25.921Z,34.61
2022-09-03T07:04:57.251Z,34.79
2022-09-03T07:07:28.302Z,34.82
2022-09-03T07:09:59.264Z,34.94
2022-09-03T07:12:30.396Z,35.16
2022-09-03T07:15:01.362Z,35.41
2022-09-03T07:17:32.324Z,35.61
2022-09-03T07:20:03.533Z,35.80
2022-09-03T07:22:34.769Z,36.03
2022-09-03T07:25:07.175Z,36.24
2022-09-03T07:27:38.771Z,36.42
2022-09-03T07:30:12.576Z,36.46
2022-09-03T07:32:41.875Z,36.52
2022-09-03T07:35:13.100Z,36.59
2022-09-03T07:37:45.371Z,36.55
2022-09-03T07:40:19.239Z,36.44
2022-09-03T07:42:54.518Z,36.28
2022-09-03T07:45:26.909Z,36.18
2022-09-03T07:47:58.935Z,36.24
2022-09-03T07:50:34.165Z,36.35
2022-09-03T07:53:05.117Z,36.56
2022-09-03T07:55:36.689Z,36.69
2022-09-03T07:58:07.889Z,36.65
2022-09-03T08:00:39.239Z,36.63
2022-09-03T08:03:10.828Z,36.62
2022-09-03T08:05:41.775Z,36.53
2022-09-03T08:08:15.593Z,36.13
2022-09-03T08:10:47.843Z,35.67
2022-09-03T08:13:19.412Z,35.24
2022-09-03T08:16:00.242Z,34.75
2022-09-03T08:18:32.120Z,34.30
2022-09-03T08:21:03.835Z,34.00
2022-09-03T08:23:34.847Z,33.73
2022-09-03T08:26:06.408Z,33.32
2022-09-03T08:28:38.085Z,32.89
2022-09-03T08:31:11.564Z,32.44
2022-09-03T08:33:43.822Z,32.01
2022-09-03T08:36:17.015Z,31.71
2022-09-03T08:38:48.724Z,31.44
2022-09-03T08:41:22.781Z,31.15
2022-09-03T08:44:08.889Z,30.84
2022-09-03T08:46:49.005Z,30.48
2022-09-03T08:49:24.276Z,30.13
2022-09-03T08:52:00.315Z,29.73
2022-09-03T08:54:33.725Z,29.38
2022-09-03T08:57:07.204Z,29.19
2022-09-03T08:59:38.465Z,29.12
2022-09-03T09:02:22.466Z,29.08
2022-09-03T09:05:06.062Z,29.10
2022-09-03T09:07:48.140Z,29.05
2022-09-03T09:10:28.418Z,28.93
2022-09-03T09:13:13.479Z,28.68
2022-09-03T09:15:56.341Z,28.31
2022-09-03T09:18:39.277Z,28.08
2022-09-03T09:21:21.458Z,27.90
2022-09-03T09:23:55.825Z,27.71
2022-09-03T09:26:27.173Z,27.57
2022-09-03T09:29:05.671Z,27.57
2022-09-03T09:31:44.757Z,27.57
2022-09-03T09:34:15.624Z,27.43
2022-09-03T09:36:52.167Z,27.25
2022-09-03T09:39:24.304Z,26.98
2022-09-03T09:42:08.377Z,26.73
2022-09-03T09:44:40.107Z,26.47
2022-09-03T09:47:14.747Z,26.35
2022-09-03T09:49:52.994Z,26.20
2022-09-03T09:52:26.151Z,26.06
2022-09-03T09:55:09.923Z,25.97
2022-09-03T09:57:40.844Z,25.82
2022-09-03T10:00:15.935Z,25.72
2022-09-03T10:02:52.259Z,25.63
2022-09-03T10:05:28.020Z,25.63
2022-09-03T10:08:00.871Z,25.69
2022-09-03T10:10:35.551Z,25.76
2022-09-03T10:13:12.711Z,25.75
2022-09-03T10:15:51.350Z,25.66
2022-09-03T10:18:32.481Z,25.55
2022-09-03T10:21:07.951Z,25.41
2022-09-03T10:23:57.803Z,25.32
2022-09-03T10:26:32.497Z,25.22
2022-09-03T10:29:03.149Z,25.07
2022-09-03T10:31:57.074Z,25.00
2022-09-03T10:34:37.361Z,24.94
2022-09-03T10:37:18.551Z,24.93
2022-09-03T10:40:06.550Z,24.90
2022-09-03T10:42:47.979Z,24.86
2022-09-03T10:45:39.396Z,24.84
2022-09-03T10:48:27.322Z,24.85
2022-09-03T10:51:04.280Z,24.80
2022-09-03T10:53:51.145Z,24.76
2022-09-03T10:56:33.979Z,24.70
2022-09-03T10:59:17.046Z,24.56
2022-09-03T11:01:56.534Z,24.39
2022-09-03T11:04:38.148Z,24.25
2022-09-03T11:07:13.816Z,24.18
2022-09-03T11:09:53.742Z,24.15
2022-09-03T11:12:30.913Z,24.16
2022-09-03T11:15:06.016Z,24.12
2022-09-03T11:17:41.437Z,23.97
2022-09-03T11:20:18.060Z,23.86
2022-09-03T11:22:51.051Z,23.79
2022-09-03T11:25:26.204Z,23.75
2022-09-03T11:28:03.521Z,23.68
2022-09-03T11:30:41.929Z,23.63
2022-09-03T11:33:15.068Z,23.57
2022-09-03T11:35:46.371Z,23.48
2022-09-03T11:38:31.162Z,23.41
2022-09-03T11:41:05.901Z,23.36
2022-09-03T11:43:36.987Z,23.32
2022-09-03T11:46:13.344Z,23.31
2022-09-03T11:48:46.496Z,23.28
2022-09-03T11:51:35.767Z,23.27
2022-09-03T11:54:09.654Z,23.25
2022-09-03T11:56:41.304Z,23.28
2022-09-03T11:59:25.118Z,23.32
2022-09-03T12:02:02.109Z,23.36
2022-09-03T12:04:44.027Z,23.36
2022-09-03T12:07:45.019Z,23.30
2022-09-03T12:10:28.787Z,23.21
2022-09-03T12:13:13.658Z,23.11
2022-09-03T12:16:08.584Z,23.02
2022-09-03T12:18:41.897Z,22.89
2022-09-03T12:21:14.685Z,22.82
2022-09-03T12:23:49.328Z,22.75
2022-09-03T12:26:23.906Z,22.70
2022-09-03T12:28:56.620Z,22.69
2022-09-03T12:31:30.165Z,22.69
2022-09-03T12:34:04.295Z,22.71
2022-09-03T12:36:41.871Z,22.71
2022-09-03T12:39:15.043Z,22.66
2022-09-03T12:42:01.421Z,22.60
2022-09-03T12:44:34.465Z,22.56
2022-09-03T12:50:07.126Z,22.46
2022-09-03T12:52:41.248Z,22.46
2022-09-03T12:55:28.181Z,22.46
2022-09-03T12:58:11.405Z,22.41
2022-09-03T13:00:49.595Z,22.34
2022-09-03T13:03:25.873Z,22.31
2022-09-03T13:06:03.924Z,22.26
2022-09-03T13:08:41.135Z,22.20
2022-09-03T13:11:16.701Z,22.15
2022-09-03T13:13:58.465Z,22.09
2022-09-03T13:17:05.484Z,22.03
2022-09-03T13:19:52.206Z,22.01
2022-09-03T13:22:34.827Z,22.02
2022-09-03T13:25:20.659Z,22.02
2022-09-03T13:28:09.346Z,22.02
2022-09-03T13:30:51.430Z,21.99
2022-09-03T13:33:29.267Z,21.96
2022-09-03T13:36:11.341Z,21.96
2022-09-03T13:38:50.177Z,21.95
2022-09-03T13:41:36.792Z,21.94
2022-09-03T13:44:13.075Z,21.90
2022-09-03T13:46:53.432Z,21.88
2022-09-03T13:49:53.508Z,21.86
2022-09-03T13:52:32.477Z,21.85
2022-09-03T13:55:10.785Z,21.85
2022-09-03T13:57:50.533Z,21.83
2022-09-03T14:00:31.485Z,21.82
2022-09-03T14:03:14.748Z,21.83
2022-09-03T14:06:03.757Z,21.82
2022-09-03T14:08:54.285Z,21.77
2022-09-03T14:11:33.712Z,21.75
2022-09-03T14:14:21.812Z,21.71
2022-09-03T14:17:01.162Z,21.67
2022-09-03T14:19:41.560Z,21.66
2022-09-03T14:22:20.624Z,21.67
2022-09-03T14:24:56.827Z,21.67
2022-09-03T14:27:30.055Z,21.67
2022-09-03T14:30:06.632Z,21.68
2022-09-03T14:32:51.451Z,21.70
2022-09-03T14:35:48.542Z,21.72
2022-09-03T14:38:48.037Z,21.76
2022-09-03T14:41:37.528Z,21.73
2022-09-03T14:44:25.420Z,21.72
2022-09-03T14:47:12.269Z,21.72
2022-09-03T14:50:10.136Z,21.74
2022-09-03T14:53:09.379Z,21.73
2022-09-03T14:56:07.018Z,21.71
2022-09-03T14:58:51.531Z,21.70
2022-09-03T15:01:35.695Z,21.68
2022-09-03T15:04:46.849Z,21.67
2022-09-03T15:07:32.156Z,21.66
2022-09-03T15:10:04.956Z,21.63
2022-09-03T15:12:40.093Z,21.60
2022-09-03T15:15:19.586Z,21.57
2022-09-03T15:18:03.432Z,21.55
2022-09-03T15:20:45.617Z,21.52
2022-09-03T15:23:42.028Z,21.51
2022-09-03T15:26:54.497Z,21.50
2022-09-03T15:29:49.834Z,21.48
2022-09-03T15:32:33.357Z,21.47
2022-09-03T15:35:09.998Z,21.48
2022-09-03T15:37:48.461Z,21.48
2022-09-03T15:40:29.927Z,21.49
2022-09-03T15:43:09.178Z,21.47
2022-09-03T15:45:57.426Z,21.47
2022-09-03T15:48:36.088Z,21.45
2022-09-03T15:51:17.504Z,21.41
2022-09-03T15:53:56.371Z,21.38
2022-09-03T15:56:37.070Z,21.34
2022-09-03T15:59:17.656Z,21.31
2022-09-03T16:01:54.939Z,21.28
2022-09-03T16:04:54.353Z,21.25
2022-09-03T16:07:34.446Z,21.20
2022-09-03T16:10:30.272Z,21.14
2022-09-03T16:13:11.225Z,21.10
2022-09-03T16:15:49.480Z,21.06
2022-09-03T16:18:30.341Z,21.02
2022-09-03T16:21:05.317Z,20.97
2022-09-03T16:23:39.641Z,20.93
2022-09-03T16:26:16.200Z,20.90
2022-09-03T16:28:53.931Z,20.86
2022-09-03T16:31:36.464Z,20.83
2022-09-03T16:34:18.979Z,20.79
2022-09-03T16:36:57.585Z,20.75
2022-09-03T16:39:40.664Z,20.70
2022-09-03T16:42:19.619Z,20.68
2022-09-03T16:45:05.688Z,20.64
2022-09-03T16:47:48.860Z,20.59
2022-09-03T16:50:35.719Z,20.53
2022-09-03T16:53:15.718Z,20.48
2022-09-03T16:56:04.465Z,20.42
2022-09-03T16:58:47.658Z,20.37
2022-09-03T17:01:35.059Z,20.32
2022-09-03T17:04:26.184Z,20.27
2022-09-03T17:07:14.616Z,20.22
2022-09-03T17:10:02.409Z,20.16
2022-09-03T17:12:39.983Z,20.11
2022-09-03T17:15:32.170Z,20.07
2022-09-03T17:18:27.868Z,20.01
2022-09-03T17:21:19.390Z,19.96
2022-09-03T17:24:08.445Z,19.91
2022-09-03T17:26:53.537Z,19.86
2022-09-03T17:29:41.810Z,19.82
2022-09-03T17:32:28.869Z,19.76
2022-09-03T17:35:20.996Z,19.71
2022-09-03T17:38:16.058Z,19.66
2022-09-03T17:45:11.617Z,19.54
2022-09-03T17:48:06.272Z,19.50
2022-09-03T17:50:53.836Z,19.47
2022-09-03T17:53:33.317Z,19.42
2022-09-03T17:56:08.381Z,19.38
2022-09-03T17:58:46.015Z,19.34
2022-09-03T18:01:25.311Z,19.29
2022-09-03T18:04:02.175Z,19.25
2022-09-03T18:06:44.349Z,19.21
2022-09-03T18:09:53.390Z,19.17
2022-09-03T18:12:36.489Z,19.12
2022-09-03T18:15:30.869Z,19.07
2022-09-03T18:18:06.743Z,19.01
2022-09-03T18:21:23.963Z,18.97
2022-09-03T18:24:29.778Z,18.92
2022-09-03T18:27:22.643Z,18.88
2022-09-03T18:30:40.318Z,18.84
2022-09-03T18:33:30.266Z,18.80
2022-09-03T18:36:28.521Z,18.76
2022-09-03T18:39:52.316Z,18.73
2022-09-03T18:42:50.657Z,18.70
2022-09-03T18:46:34.181Z,18.67
2022-09-03T18:49:08.680Z,18.62
2022-09-03T18:52:12.085Z,18.57
2022-09-03T18:55:15.670Z,18.52
2022-09-03T19:02:01.340Z,18.41
2022-09-03T19:05:04.888Z,18.38
2022-09-03T19:08:14.258Z,18.33
2022-09-03T19:11:27.176Z,18.29
2022-09-03T19:14:25.063Z,18.24
2022-09-03T19:17:36.181Z,18.20
2022-09-03T19:21:09.020Z,18.16
2022-09-03T19:23:59.536Z,18.12
2022-09-03T19:34:23.329Z,17.98
2022-09-03T19:37:23.366Z,17.93
2022-09-03T19:40:30.425Z,17.88
2022-09-03T19:43:36.974Z,17.85
2022-09-03T19:46:45.883Z,17.82
2022-09-03T19:53:22.053Z,17.71
2022-09-03T19:56:14.178Z,17.67
2022-09-03T19:59:10.662Z,17.63
2022-09-03T20:02:00.747Z,17.59
2022-09-03T20:05:16.874Z,17.53
2022-09-03T20:08:09.602Z,17.48
2022-09-03T20:10:42.996Z,17.45
2022-09-03T20:13:18.782Z,17.42
2022-09-03T20:16:02.146Z,17.39
2022-09-03T20:18:45.644Z,17.34
2022-09-03T20:21:25.158Z,17.31
2022-09-03T20:24:01.958Z,17.28
2022-09-03T20:26:52.997Z,17.25
2022-09-03T20:29:57.819Z,17.22
2022-09-03T20:32:54.198Z,17.20
2022-09-03T20:35:35.739Z,17.17
2022-09-03T20:38:30.927Z,17.14
2022-09-03T20:41:15.225Z,17.11
2022-09-03T20:44:10.626Z,17.09
2022-09-03T20:47:00.296Z,17.06
2022-09-03T20:49:42.776Z,17.04
2022-09-03T20:52:21.185Z,17.02
2022-09-03T20:55:07.173Z,16.99
2022-09-03T20:58:08.068Z,16.96
2022-09-03T21:00:51.136Z,16.93
2022-09-03T21:03:50.227Z,16.90
2022-09-03T21:06:34.612Z,16.86
2022-09-03T21:09:26.983Z,16.82
2022-09-03T21:12:09.857Z,16.82
2022-09-03T21:14:48.535Z,16.78
2022-09-03T21:17:38.953Z,16.75
2022-09-03T21:20:21.547Z,16.73
2022-09-03T21:23:06.535Z,16.70
2022-09-03T21:25:41.170Z,16.68
2022-09-03T21:28:19.264Z,16.66
2022-09-03T21:30:57.615Z,16.64
2022-09-03T21:33:34.501Z,16.62
2022-09-03T21:36:15.698Z,16.58
2022-09-03T21:39:15.810Z,16.56
2022-09-03T21:41:54.777Z,16.53
2022-09-03T21:44:47.898Z,16.51
2022-09-03T21:47:21.472Z,16.48
2022-09-03T21:50:04.099Z,16.45
2022-09-03T21:52:50.496Z,16.43
2022-09-03T21:55:31.756Z,16.39
2022-09-03T21:58:20.430Z,16.34
2022-09-03T22:00:57.722Z,16.29
2022-09-03T22:03:28.921Z,16.23
2022-09-03T22:06:07.811Z,16.18
2022-09-03T22:08:49.425Z,16.11
2022-09-03T22:11:29.688Z,16.05
2022-09-03T22:14:10.822Z,15.99
2022-09-03T22:16:47.567Z,15.92
2022-09-03T22:19:19.247Z,15.86
2022-09-03T22:21:59.669Z,15.79
2022-09-03T22:24:41.592Z,15.72
2022-09-03T22:27:26.053Z,15.65
2022-09-03T22:30:07.445Z,15.57
2022-09-03T22:32:59.337Z,15.50
2022-09-03T22:35:48.744Z,15.42
2022-09-03T22:38:37.632Z,15.31
2022-09-03T22:41:26.048Z,15.22
2022-09-03T22:44:11.481Z,15.14
2022-09-03T22:46:50.461Z,15.07
2022-09-03T22:49:38.198Z,14.99
2022-09-03T22:52:30.475Z,14.90
2022-09-03T22:55:18.638Z,14.81
2022-09-03T22:57:57.346Z,14.73
2022-09-03T23:00:30.737Z,14.68
2022-09-03T23:03:09.028Z,14.62
2022-09-03T23:05:45.999Z,14.55
2022-09-03T23:08:25.536Z,14.49
2022-09-03T23:11:03.901Z,14.43
2022-09-03T23:13:42.243Z,14.38
2022-09-03T23:16:20.740Z,14.32
2022-09-03T23:18:53.402Z,14.27
2022-09-03T23:21:31.553Z,14.22
2022-09-03T23:24:07.289Z,14.18
2022-09-03T23:26:42.945Z,14.12
2022-09-03T23:29:20.679Z,14.06
2022-09-03T23:31:54.057Z,14.00
2022-09-03T23:34:25.923Z,13.95
2022-09-03T23:40:28.122Z,13.83
2022-09-03T23:43:17.367Z,13.78
2022-09-03T23:46:03.983Z,13.73
2022-09-03T23:48:45.264Z,13.69
2022-09-03T23:51:28.183Z,13.66
2022-09-03T23:54:10.311Z,13.62
2022-09-03T23:56:58.318Z,13.58
2022-09-03T23:59:42.066Z,13.54
